Grand Prairie, Illinois
Current Conditions -  °F | °C
As of 12:15 PM on Wednesday 28 Jan 2015 (Local Time) from KENL Reporting Station
Clear Clear  
Wind Chill: 32°   Ceiling: Unl
Heat Index: 39°   Visibility: 10mi
Dew Point: 29°   Wind: 13mph
Humidity: 66%   Direction: 160°SSE
Pressure: 30.21"   Gusts: 20mph
Location:  38.3873°N, 89.0897°W
Report Text: KENL 281815Z AUTO 16011G17KT 10SM CLR 04/M02 A3021 RMK AO2 T00401018
Loading
Personal Weather Stations






























Interactive Weather Map New forecast layout! Learn more

10-Day Weather Forecast

Advertisements
Track Severe Weather on mobile